KMWC

Lawrence J Timmerman Airport

Milwaukee, Wisconsin, USA
METAR KMWC 240215Z AUTO 00000KT 10SM CLR 20/06 A3018 RMK AO2
Observed Flight Rules
May-24 @ 02:15 UTC (6 minutes ago) Visual Flight Rules
Visibility Clouds
10 miles
  • Clear skies
Temperatures Readings
Current 20°C / 68°F
Dewpoint 6°C / 43°F
Humidity 40%
Altimeter 30.18" Hg
Pressure 1022 hPa
Elevation 227
METAR KMWC 240215Z AUTO 00000KT 10SM CLR 20/06 A3018 RMK AO2
Observed Flight Rules
May-24 @ 02:15 UTC
(6 minutes ago)
VFR
Clouds
  • Clear skies
Temperature Dewpoint
20°C / 68°F 6°C / 43°F
Humidity Altimeter Pressure
40% 30.18" Hg 1022 hPa